createdAt,value
2022-08-22T00:01:03.490Z,3.13
2022-08-22T00:02:45.889Z,1.73
2022-08-22T00:02:54.354Z,1.95
2022-08-22T00:03:03.075Z,1.20
2022-08-22T00:03:09.334Z,2.65
2022-08-22T00:03:42.581Z,3.05
2022-08-22T00:06:15.354Z,3.00
2022-08-22T00:08:41.799Z,2.70
2022-08-22T00:11:08.191Z,2.70
2022-08-22T00:13:42.870Z,2.90
2022-08-22T00:16:14.181Z,2.92
2022-08-22T00:18:48.119Z,3.30
2022-08-22T00:21:21.908Z,3.08
2022-08-22T00:23:53.741Z,2.90
2022-08-22T00:26:24.828Z,3.05
2022-08-22T00:29:02.654Z,3.00
2022-08-22T00:31:40.247Z,2.90
2022-08-22T00:34:06.689Z,3.00
2022-08-22T00:36:39.829Z,2.97
2022-08-22T00:39:09.263Z,2.60
2022-08-22T00:41:42.190Z,3.30
2022-08-22T00:44:20.867Z,2.80
2022-08-22T00:47:02.873Z,3.08
2022-08-22T00:49:44.375Z,3.20
2022-08-22T00:52:20.262Z,2.47
2022-08-22T00:55:00.269Z,2.58
2022-08-22T00:57:26.839Z,2.38
2022-08-22T00:59:55.982Z,3.03
2022-08-22T01:02:41.300Z,2.55
2022-08-22T01:05:07.741Z,3.28
2022-08-22T01:07:53.130Z,3.17
2022-08-22T01:10:20.110Z,3.25
2022-08-22T01:12:52.930Z,2.97
2022-08-22T01:15:37.770Z,3.08
2022-08-22T01:18:18.835Z,2.90
2022-08-22T01:21:04.114Z,2.95
2022-08-22T01:23:49.260Z,3.17
2022-08-22T01:26:34.556Z,3.30
2022-08-22T01:29:32.359Z,3.65
2022-08-22T01:31:58.766Z,3.00
2022-08-22T01:34:25.184Z,3.28
2022-08-22T01:37:04.517Z,2.90
2022-08-22T01:39:49.084Z,3.10
2022-08-22T01:42:24.460Z,2.97
2022-08-22T01:45:06.212Z,2.95
2022-08-22T01:47:37.487Z,2.90
2022-08-22T01:50:23.168Z,3.72
2022-08-22T01:52:59.234Z,3.15
2022-08-22T01:55:44.865Z,3.28
2022-08-22T01:58:19.863Z,3.28
2022-08-22T02:01:09.866Z,2.92
2022-08-22T02:03:41.940Z,2.90
2022-08-22T02:06:16.171Z,2.80
2022-08-22T02:08:50.408Z,2.72
2022-08-22T02:11:32.136Z,3.08
2022-08-22T02:14:16.900Z,3.20
2022-08-22T02:16:49.535Z,3.17
2022-08-22T02:19:15.979Z,3.35
2022-08-22T02:21:49.351Z,3.20
2022-08-22T02:24:21.514Z,3.60
2022-08-22T02:27:05.187Z,3.90
2022-08-22T02:29:48.688Z,3.40
2022-08-22T02:32:24.057Z,3.47
2022-08-22T02:35:08.842Z,2.97
2022-08-22T02:37:38.233Z,2.72
2022-08-22T02:40:05.779Z,3.40
2022-08-22T02:44:58.543Z,2.92
2022-08-22T02:47:32.441Z,2.70
2022-08-22T02:50:12.941Z,2.60
2022-08-22T02:52:47.488Z,2.53
2022-08-22T02:55:18.306Z,2.70
2022-08-22T02:58:00.986Z,3.03
2022-08-22T03:00:32.703Z,2.97
2022-08-22T03:02:59.565Z,3.05
2022-08-22T03:05:28.271Z,3.10
2022-08-22T03:08:02.485Z,3.20
2022-08-22T03:10:32.292Z,2.50
2022-08-22T03:13:10.640Z,3.10
2022-08-22T03:15:48.633Z,3.30
2022-08-22T03:18:18.675Z,3.10
2022-08-22T03:20:54.136Z,2.80
2022-08-22T03:23:25.363Z,2.47
2022-08-22T03:25:54.926Z,2.72
2022-08-22T03:28:29.069Z,3.13
2022-08-22T03:30:57.618Z,2.78
2022-08-22T03:33:25.400Z,3.30
2022-08-22T03:35:59.700Z,3.33
2022-08-22T03:38:29.160Z,3.60
2022-08-22T03:41:16.461Z,3.75
2022-08-22T03:46:28.039Z,6.65
2022-08-22T03:48:54.534Z,8.85
2022-08-22T03:51:23.874Z,8.27
2022-08-22T03:53:53.927Z,5.68
2022-08-22T03:56:20.363Z,5.47
2022-08-22T03:58:46.768Z,5.53
2022-08-22T04:01:19.663Z,5.60
2022-08-22T04:03:52.350Z,5.35
2022-08-22T04:06:29.539Z,4.75
2022-08-22T04:09:24.542Z,4.18
2022-08-22T04:12:08.069Z,4.88
2022-08-22T04:14:44.152Z,4.60
2022-08-22T04:17:16.543Z,4.00
2022-08-22T04:19:45.989Z,4.05
2022-08-22T04:22:31.234Z,4.53
2022-08-22T04:25:01.116Z,4.38
2022-08-22T04:27:43.646Z,4.10
2022-08-22T04:30:16.294Z,4.32
2022-08-22T04:32:56.629Z,4.20
2022-08-22T04:35:29.781Z,4.32
2022-08-22T04:38:02.544Z,4.63
2022-08-22T04:40:33.317Z,5.45
2022-08-22T04:43:18.648Z,4.85
2022-08-22T04:45:45.140Z,5.25
2022-08-22T04:48:33.611Z,5.30
2022-08-22T04:51:03.330Z,4.93
2022-08-22T04:53:32.758Z,5.20
2022-08-22T04:56:07.106Z,5.45
2022-08-22T04:58:43.144Z,5.70
2022-08-22T05:01:14.855Z,6.40
2022-08-22T05:03:45.187Z,4.82
2022-08-22T05:06:13.433Z,5.90
2022-08-22T05:08:40.544Z,6.88
2022-08-22T05:11:07.624Z,7.97
2022-08-22T05:13:39.219Z,8.75
2022-08-22T05:16:09.590Z,9.38
2022-08-22T05:18:38.592Z,8.50
2022-08-22T05:21:07.504Z,7.88
2022-08-22T05:23:44.854Z,8.25
2022-08-22T05:26:12.805Z,7.88
2022-08-22T05:28:43.235Z,8.85
2022-08-22T05:31:11.529Z,8.30
2022-08-22T05:33:42.672Z,8.38
2022-08-22T05:36:11.360Z,8.48
2022-08-22T05:38:43.940Z,9.27
2022-08-22T05:41:12.043Z,7.82
2022-08-22T05:43:40.680Z,8.30
2022-08-22T05:46:09.876Z,7.55
2022-08-22T05:48:40.360Z,7.07
2022-08-22T05:51:15.295Z,7.45
2022-08-22T05:53:47.696Z,8.02
2022-08-22T05:56:18.488Z,7.85
2022-08-22T05:58:54.537Z,8.25
2022-08-22T06:01:24.126Z,8.18
2022-08-22T06:03:59.990Z,8.75
2022-08-22T06:06:27.769Z,9.05
2022-08-22T06:08:58.469Z,9.18
2022-08-22T06:11:33.989Z,8.88
2022-08-22T06:14:09.920Z,8.20
2022-08-22T06:16:39.443Z,7.80
2022-08-22T06:19:19.500Z,8.07
2022-08-22T06:21:51.772Z,7.88
2022-08-22T06:24:22.016Z,8.07
2022-08-22T06:26:51.149Z,7.93
2022-08-22T06:29:22.740Z,8.50
2022-08-22T06:31:49.690Z,8.00
2022-08-22T06:34:18.150Z,8.48
2022-08-22T06:36:46.493Z,9.18
2022-08-22T06:39:21.837Z,8.90
2022-08-22T06:41:51.975Z,8.30
2022-08-22T06:44:20.800Z,8.77
2022-08-22T06:46:48.040Z,8.13
2022-08-22T06:49:14.827Z,7.85
2022-08-22T06:51:41.492Z,8.37
2022-08-22T06:54:16.245Z,7.70
2022-08-22T06:56:44.299Z,7.32
2022-08-22T06:59:15.827Z,6.22
2022-08-22T07:01:49.219Z,7.18
2022-08-22T07:04:16.007Z,6.85
2022-08-22T07:06:50.079Z,6.95
2022-08-22T07:09:30.807Z,6.32
2022-08-22T07:11:59.449Z,6.78
2022-08-22T07:14:28.253Z,6.60
2022-08-22T07:16:57.274Z,6.65
2022-08-22T07:19:31.595Z,6.57
2022-08-22T07:21:58.866Z,6.50
2022-08-22T07:24:31.330Z,5.95
2022-08-22T07:27:08.488Z,5.95
2022-08-22T07:32:21.629Z,5.77
2022-08-22T07:34:51.088Z,5.93
2022-08-22T07:37:23.530Z,6.18
2022-08-22T07:39:53.780Z,5.82
2022-08-22T07:42:39.711Z,5.93
2022-08-22T07:45:06.301Z,5.55
2022-08-22T07:47:52.480Z,5.30
2022-08-22T07:50:24.603Z,5.50
2022-08-22T07:52:51.995Z,4.93
2022-08-22T07:55:20.369Z,4.65
2022-08-22T07:57:48.797Z,4.82
2022-08-22T08:00:17.143Z,4.90
2022-08-22T08:02:49.495Z,4.47
2022-08-22T08:05:17.463Z,5.03
2022-08-22T08:07:45.461Z,4.35
2022-08-22T08:10:32.646Z,3.92
2022-08-22T08:13:02.242Z,4.07
2022-08-22T08:15:30.406Z,3.50
2022-08-22T08:17:59.789Z,3.72
2022-08-22T08:20:27.810Z,3.00
2022-08-22T08:22:55.912Z,3.75
2022-08-22T08:25:24.841Z,3.30
2022-08-22T08:28:10.639Z,3.38
2022-08-22T08:30:40.826Z,2.65
2022-08-22T08:33:26.352Z,2.50
2022-08-22T08:36:02.364Z,2.92
2022-08-22T08:38:32.744Z,2.40
2022-08-22T08:41:08.405Z,2.58
2022-08-22T08:43:41.032Z,3.22
2022-08-22T08:46:26.253Z,2.53
2022-08-22T08:48:55.515Z,2.60
2022-08-22T08:51:31.392Z,2.22
2022-08-22T08:53:57.811Z,2.60
2022-08-22T08:59:00.451Z,2.13
2022-08-22T09:01:29.870Z,2.53
2022-08-22T09:04:16.201Z,1.90
2022-08-22T09:06:52.849Z,1.42
2022-08-22T09:09:41.918Z,1.70
2022-08-22T09:12:17.014Z,1.40
2022-08-22T09:14:56.016Z,1.40
2022-08-22T09:17:51.819Z,1.63
2022-08-22T09:20:38.996Z,1.40
2022-08-22T09:23:10.072Z,1.30
2022-08-22T09:25:51.057Z,1.42
2022-08-22T09:28:30.040Z,1.67
2022-08-22T09:30:59.613Z,1.67
2022-08-22T09:33:34.019Z,1.40
2022-08-22T09:36:13.264Z,1.35
2022-08-22T09:38:59.908Z,1.27
2022-08-22T09:41:42.585Z,1.20
2022-08-22T09:44:17.505Z,1.00
2022-08-22T09:46:43.947Z,1.60
2022-08-22T09:49:14.135Z,1.17
2022-08-22T09:51:58.131Z,1.42
2022-08-22T09:54:24.533Z,1.42
2022-08-22T09:56:58.454Z,1.50
2022-08-22T09:59:24.869Z,1.67
2022-08-22T10:01:58.111Z,1.52
2022-08-22T10:04:40.531Z,1.63
2022-08-22T10:07:27.441Z,1.42
2022-08-22T10:10:12.109Z,1.70
2022-08-22T10:12:42.419Z,1.83
2022-08-22T10:15:18.698Z,1.55
2022-08-22T10:18:03.864Z,1.60
2022-08-22T10:20:35.707Z,1.90
2022-08-22T10:23:15.589Z,1.70
2022-08-22T10:25:44.841Z,1.95
2022-08-22T10:28:17.247Z,2.00
2022-08-22T10:30:49.800Z,2.10
2022-08-22T10:33:23.013Z,2.33
2022-08-22T10:36:00.929Z,1.80
2022-08-22T10:38:44.032Z,1.70
2022-08-22T10:41:16.615Z,1.90
2022-08-22T10:43:56.535Z,1.60
2022-08-22T10:46:30.833Z,1.70
2022-08-22T10:48:58.713Z,1.50
2022-08-22T10:51:31.550Z,1.95
2022-08-22T10:54:04.607Z,1.80
2022-08-22T10:56:34.276Z,1.60
2022-08-22T10:59:06.042Z,1.92
2022-08-22T11:01:42.161Z,1.30
2022-08-22T11:04:28.022Z,1.58
2022-08-22T11:07:15.146Z,1.43
2022-08-22T11:09:48.858Z,1.50
2022-08-22T11:12:20.291Z,1.52
2022-08-22T11:14:50.234Z,1.30
2022-08-22T11:17:30.205Z,1.23
2022-08-22T11:20:08.949Z,1.20
2022-08-22T11:25:35.673Z,1.15
2022-08-22T11:28:05.515Z,1.00
2022-08-22T11:30:32.014Z,1.23
2022-08-22T11:33:21.680Z,1.02
2022-08-22T11:36:11.119Z,1.08
2022-08-22T11:38:49.788Z,0.80
2022-08-22T11:41:22.537Z,1.13
2022-08-22T11:43:50.759Z,1.00
2022-08-22T11:46:23.561Z,0.82
2022-08-22T11:49:01.316Z,0.80
2022-08-22T11:51:36.692Z,1.10
2022-08-22T11:54:11.760Z,0.90
2022-08-22T11:56:45.171Z,0.90
2022-08-22T11:59:32.494Z,1.00
2022-08-22T12:02:04.222Z,1.27
2022-08-22T12:04:46.234Z,0.85
2022-08-22T12:07:15.631Z,0.80
2022-08-22T12:09:50.578Z,0.85
2022-08-22T12:12:22.936Z,0.93
2022-08-22T12:14:49.731Z,1.35
2022-08-22T12:17:50.881Z,0.95
2022-08-22T12:20:16.858Z,1.00
2022-08-22T12:22:50.144Z,1.23
2022-08-22T12:25:49.474Z,1.15
2022-08-22T12:28:35.144Z,0.80
2022-08-22T12:31:13.954Z,0.88
2022-08-22T12:33:40.461Z,0.85
2022-08-22T12:36:17.943Z,0.75
2022-08-22T12:39:03.418Z,1.00
2022-08-22T12:42:00.703Z,0.57
2022-08-22T12:44:30.923Z,0.40
2022-08-22T12:47:06.643Z,0.60
2022-08-22T12:49:54.410Z,0.40
2022-08-22T12:52:31.341Z,0.20
2022-08-22T12:55:09.126Z,0.30
2022-08-22T12:57:41.871Z,0.38
2022-08-22T13:00:11.667Z,0.40
2022-08-22T13:02:39.782Z,0.38
2022-08-22T13:05:13.739Z,0.30
2022-08-22T13:07:52.056Z,0.30
2022-08-22T13:10:33.831Z,0.30
2022-08-22T13:13:00.914Z,0.32
2022-08-22T13:15:42.551Z,0.30
2022-08-22T13:18:29.523Z,0.38
2022-08-22T13:20:58.274Z,0.30
2022-08-22T13:23:26.844Z,0.30
2022-08-22T13:26:12.617Z,0.20
2022-08-22T13:29:15.238Z,0.30
2022-08-22T13:31:43.246Z,0.10
2022-08-22T13:34:26.035Z,0.20
2022-08-22T13:36:55.399Z,0.38
2022-08-22T13:39:25.883Z,0.50
2022-08-22T13:41:56.970Z,1.25
2022-08-22T13:44:28.445Z,0.80
2022-08-22T13:47:13.753Z,0.85
2022-08-22T13:49:45.262Z,2.20
2022-08-22T13:52:20.658Z,3.50
2022-08-22T13:54:56.121Z,2.15
2022-08-22T13:57:46.048Z,1.03
2022-08-22T14:00:28.447Z,0.95
2022-08-22T14:03:05.581Z,1.02
2022-08-22T14:05:38.633Z,0.68
2022-08-22T14:08:18.387Z,0.70
2022-08-22T14:10:55.015Z,0.30
2022-08-22T14:13:39.246Z,0.50
2022-08-22T14:16:10.449Z,0.50
2022-08-22T14:18:57.267Z,0.35
2022-08-22T14:21:33.494Z,0.70
2022-08-22T14:24:09.733Z,0.75
2022-08-22T14:26:47.911Z,0.40
2022-08-22T14:29:16.141Z,0.52
2022-08-22T14:31:55.095Z,0.50
2022-08-22T14:34:22.082Z,0.50
2022-08-22T14:37:04.008Z,0.47
2022-08-22T14:39:31.700Z,0.57
2022-08-22T14:42:11.252Z,0.50
2022-08-22T14:44:42.192Z,0.60
2022-08-22T14:47:32.672Z,0.30
2022-08-22T14:49:59.858Z,0.52
2022-08-22T14:52:29.570Z,0.50
2022-08-22T14:55:10.859Z,0.40
2022-08-22T14:57:41.259Z,0.47
2022-08-22T15:00:12.304Z,0.40
2022-08-22T15:02:40.193Z,0.57
2022-08-22T15:05:15.197Z,0.50
2022-08-22T15:07:42.182Z,0.40
2022-08-22T15:10:11.848Z,0.50
2022-08-22T15:12:46.735Z,0.63
2022-08-22T15:15:26.540Z,0.52
2022-08-22T15:17:53.155Z,0.57
2022-08-22T15:20:27.718Z,0.50
2022-08-22T15:22:55.689Z,0.40
2022-08-22T15:25:25.097Z,0.50
2022-08-22T15:27:59.329Z,0.50
2022-08-22T15:30:37.309Z,0.40
2022-08-22T15:33:12.971Z,0.60
2022-08-22T15:35:40.332Z,0.50
2022-08-22T15:38:08.496Z,0.70
2022-08-22T15:40:42.790Z,0.60
2022-08-22T15:43:12.027Z,0.30
2022-08-22T15:45:39.035Z,0.40
2022-08-22T15:48:25.295Z,0.50
2022-08-22T15:51:09.499Z,0.40
2022-08-22T15:53:45.420Z,0.30
2022-08-22T15:56:11.856Z,0.30
2022-08-22T15:58:48.809Z,0.40
2022-08-22T16:01:20.128Z,0.30
2022-08-22T16:03:53.155Z,0.30
2022-08-22T16:06:39.537Z,0.30
2022-08-22T16:09:10.288Z,0.40
2022-08-22T16:11:38.918Z,0.50
2022-08-22T16:14:17.308Z,0.50
2022-08-22T16:16:44.864Z,0.40
2022-08-22T16:19:22.301Z,0.40
2022-08-22T16:21:51.500Z,0.30
2022-08-22T16:24:17.977Z,0.40
2022-08-22T16:26:44.439Z,0.47
2022-08-22T16:29:14.826Z,0.50
2022-08-22T16:31:44.332Z,0.40
2022-08-22T16:34:20.381Z,0.30
2022-08-22T16:36:49.064Z,0.50
2022-08-22T16:39:21.739Z,0.30
2022-08-22T16:41:53.154Z,0.73
2022-08-22T16:44:19.575Z,0.70
2022-08-22T16:46:46.567Z,0.52
2022-08-22T16:49:23.855Z,0.50
2022-08-22T16:52:09.073Z,0.50
2022-08-22T16:54:43.806Z,0.82
2022-08-22T16:57:22.398Z,0.65
2022-08-22T16:59:48.859Z,0.82
2022-08-22T17:02:38.097Z,0.67
2022-08-22T17:05:43.102Z,0.90
2022-08-22T17:08:15.443Z,0.80
2022-08-22T17:10:46.172Z,1.00
2022-08-22T17:13:32.881Z,1.02
2022-08-22T17:16:18.612Z,1.13
2022-08-22T17:18:50.497Z,1.30
2022-08-22T17:21:19.825Z,1.60
2022-08-22T17:23:49.357Z,1.17
2022-08-22T17:26:25.872Z,1.23
2022-08-22T17:29:03.132Z,1.40
2022-08-22T17:31:32.817Z,1.23
2022-08-22T17:34:18.189Z,1.50
2022-08-22T17:36:50.831Z,1.50
2022-08-22T17:39:24.829Z,1.60
2022-08-22T17:42:10.221Z,1.70
2022-08-22T17:44:47.428Z,1.50
2022-08-22T17:47:19.556Z,1.87
2022-08-22T17:50:05.892Z,1.77
2022-08-22T17:52:51.538Z,1.70
2022-08-22T17:55:19.615Z,1.30
2022-08-22T17:57:51.200Z,1.50
2022-08-22T18:00:24.237Z,1.73
2022-08-22T18:02:53.286Z,1.48
2022-08-22T18:05:35.420Z,1.73
2022-08-22T18:11:09.278Z,1.52
2022-08-22T18:13:54.503Z,1.52
2022-08-22T18:16:35.361Z,1.50
2022-08-22T18:19:04.622Z,1.95
2022-08-22T18:21:32.885Z,2.22
2022-08-22T18:24:00.940Z,1.88
2022-08-22T18:26:33.815Z,2.00
2022-08-22T18:29:06.131Z,1.80
2022-08-22T18:31:38.895Z,1.70
2022-08-22T18:34:27.992Z,1.88
2022-08-22T18:37:12.856Z,1.73
2022-08-22T18:39:47.509Z,1.45
2022-08-22T18:42:28.152Z,1.42
2022-08-22T18:44:54.700Z,1.35
2022-08-22T18:47:34.471Z,1.30
2022-08-22T18:50:02.675Z,1.50
2022-08-22T18:52:29.109Z,1.40
2022-08-22T18:54:55.525Z,1.30
2022-08-22T18:57:30.979Z,1.45
2022-08-22T19:00:17.840Z,1.10
2022-08-22T19:03:03.611Z,1.23
2022-08-22T19:05:49.386Z,1.15
2022-08-22T19:08:31.314Z,1.00
2022-08-22T19:11:07.911Z,1.17
2022-08-22T19:13:41.697Z,1.48
2022-08-22T19:16:17.204Z,1.35
2022-08-22T19:18:58.749Z,1.27
2022-08-22T19:21:48.426Z,1.50
2022-08-22T19:24:20.623Z,1.42
2022-08-22T19:26:48.873Z,1.70
2022-08-22T19:29:15.977Z,1.30
2022-08-22T19:31:56.386Z,1.58
2022-08-22T19:34:29.300Z,1.30
2022-08-22T19:37:32.322Z,1.30
2022-08-22T19:40:10.267Z,1.60
2022-08-22T19:42:38.891Z,1.50
2022-08-22T19:45:19.536Z,1.45
2022-08-22T19:47:53.998Z,1.50
2022-08-22T19:50:21.285Z,1.45
2022-08-22T19:52:57.595Z,1.55
2022-08-22T19:55:24.062Z,1.73
2022-08-22T19:57:57.210Z,2.25
2022-08-22T20:00:42.310Z,2.33
2022-08-22T20:03:32.377Z,1.33
2022-08-22T20:06:03.408Z,0.68
2022-08-22T20:08:31.600Z,1.20
2022-08-22T20:11:08.068Z,0.95
2022-08-22T20:13:35.488Z,0.80
2022-08-22T20:16:17.150Z,1.60
2022-08-22T20:19:06.433Z,1.20
2022-08-22T20:21:39.295Z,1.80
2022-08-22T20:24:07.501Z,1.38
2022-08-22T20:26:40.288Z,1.50
2022-08-22T20:29:14.864Z,2.70
2022-08-22T20:34:13.369Z,2.78
2022-08-22T20:36:42.858Z,2.42
2022-08-22T20:39:12.636Z,2.38
2022-08-22T20:41:40.679Z,2.33
2022-08-22T20:44:13.399Z,1.98
2022-08-22T20:46:43.746Z,1.60
2022-08-22T20:49:16.332Z,2.00
2022-08-22T20:51:50.551Z,1.70
2022-08-22T20:54:18.581Z,1.77
2022-08-22T20:56:53.422Z,1.70
2022-08-22T20:59:29.674Z,1.48
2022-08-22T21:02:19.177Z,2.65
2022-08-22T21:04:45.639Z,2.22
2022-08-22T21:07:12.206Z,2.58
2022-08-22T21:09:57.281Z,2.75
2022-08-22T21:12:24.865Z,2.72
2022-08-22T21:14:51.291Z,2.40
2022-08-22T21:17:34.409Z,2.10
2022-08-22T21:20:19.186Z,1.50
2022-08-22T21:22:45.716Z,2.70
2022-08-22T21:25:12.185Z,3.37
2022-08-22T21:27:38.652Z,3.03
2022-08-22T21:30:07.307Z,2.40
2022-08-22T21:32:40.117Z,3.00
2022-08-22T21:35:07.688Z,2.85
2022-08-22T21:37:44.131Z,3.00
2022-08-22T21:40:18.256Z,2.40
2022-08-22T21:42:46.293Z,2.30
2022-08-22T21:45:31.143Z,2.97
2022-08-22T21:47:57.861Z,3.22
2022-08-22T21:50:26.252Z,3.38
2022-08-22T21:52:55.751Z,3.30
2022-08-22T21:55:29.831Z,3.97
2022-08-22T21:58:12.592Z,3.85
2022-08-22T22:00:49.014Z,4.22
2022-08-22T22:03:18.129Z,3.95
2022-08-22T22:05:44.840Z,3.92
2022-08-22T22:08:11.335Z,4.28
2022-08-22T22:10:39.335Z,4.20
2022-08-22T22:13:06.276Z,4.10
2022-08-22T22:15:36.770Z,3.88
2022-08-22T22:18:03.951Z,3.83
2022-08-22T22:20:30.612Z,3.97
2022-08-22T22:22:57.143Z,3.73
2022-08-22T22:25:40.998Z,4.05
2022-08-22T22:28:11.203Z,4.07
2022-08-22T22:30:37.754Z,4.22
2022-08-22T22:33:04.682Z,4.13
2022-08-22T22:35:31.602Z,3.63
2022-08-22T22:37:58.173Z,4.05
2022-08-22T22:40:24.802Z,3.80
2022-08-22T22:42:51.350Z,3.67
2022-08-22T22:45:17.861Z,3.78
2022-08-22T22:47:44.375Z,3.67
2022-08-22T22:50:10.854Z,4.05
2022-08-22T22:52:38.462Z,3.78
2022-08-22T22:55:07.705Z,3.53
2022-08-22T22:57:41.330Z,3.10
2022-08-22T23:00:10.683Z,3.40
2022-08-22T23:02:37.160Z,3.28
2022-08-22T23:05:04.014Z,3.45
2022-08-22T23:07:30.483Z,3.42
2022-08-22T23:10:01.474Z,3.10
2022-08-22T23:12:28.734Z,3.30
2022-08-22T23:14:55.247Z,3.40
2022-08-22T23:17:21.862Z,3.60
2022-08-22T23:19:48.445Z,3.77
2022-08-22T23:22:14.975Z,3.23
2022-08-22T23:24:41.837Z,2.33
2022-08-22T23:27:09.191Z,2.40
2022-08-22T23:29:37.210Z,2.85
2022-08-22T23:32:04.400Z,2.88
2022-08-22T23:34:32.553Z,3.17
2022-08-22T23:36:59.985Z,2.92
2022-08-22T23:41:53.273Z,2.70
2022-08-22T23:44:21.651Z,2.72
2022-08-22T23:46:48.119Z,2.90
2022-08-22T23:49:15.578Z,2.60
2022-08-22T23:54:08.651Z,1.90
2022-08-22T23:56:40.115Z,1.30
2022-08-22T23:59:08.067Z,1.00
